sensor_id;sensor_type;location;lat;lon;timestamp;P1;durP1;ratioP1;P2;durP2;ratioP2
20830;SDS011;10576;53.556;9.868;2024-03-23T00:55:54;332.25;;;83.28;;
20830;SDS011;10576;53.556;9.868;2024-03-23T00:58:19;331.80;;;82.90;;
20830;SDS011;10576;53.556;9.868;2024-03-23T01:00:45;330.13;;;82.07;;
20830;SDS011;10576;53.556;9.868;2024-03-23T01:03:11;329.98;;;81.95;;
20830;SDS011;10576;53.556;9.868;2024-03-23T01:05:37;330.63;;;82.97;;
20830;SDS011;10576;53.556;9.868;2024-03-23T01:08:03;332.35;;;85.72;;
20830;SDS011;10576;53.556;9.868;2024-03-23T01:10:29;332.40;;;83.83;;
20830;SDS011;10576;53.556;9.868;2024-03-23T01:12:55;329.17;;;82.05;;
20830;SDS011;10576;53.556;9.868;2024-03-23T01:15:21;333.55;;;84.15;;
20830;SDS011;10576;53.556;9.868;2024-03-23T01:17:47;332.02;;;81.60;;
20830;SDS011;10576;53.556;9.868;2024-03-23T01:20:13;331.93;;;82.53;;
20830;SDS011;10576;53.556;9.868;2024-03-23T01:22:39;332.63;;;82.78;;
20830;SDS011;10576;53.556;9.868;2024-03-23T01:25:04;331.50;;;82.50;;
20830;SDS011;10576;53.556;9.868;2024-03-23T01:27:30;331.80;;;81.83;;
20830;SDS011;10576;53.556;9.868;2024-03-23T01:29:56;330.30;;;82.03;;
20830;SDS011;10576;53.556;9.868;2024-03-23T01:32:22;330.23;;;81.30;;
20830;SDS011;10576;53.556;9.868;2024-03-23T01:34:48;329.23;;;80.37;;
20830;SDS011;10576;53.556;9.868;2024-03-23T01:37:14;331.67;;;82.90;;
20830;SDS011;10576;53.556;9.868;2024-03-23T01:39:40;330.90;;;81.72;;
20830;SDS011;10576;53.556;9.868;2024-03-23T01:42:05;332.40;;;83.22;;
20830;SDS011;10576;53.556;9.868;2024-03-23T01:44:31;330.45;;;80.57;;
20830;SDS011;10576;53.556;9.868;2024-03-23T01:46:57;327.53;;;79.73;;
20830;SDS011;10576;53.556;9.868;2024-03-23T01:49:22;331.40;;;82.13;;
20830;SDS011;10576;53.556;9.868;2024-03-23T01:51:49;329.85;;;79.15;;
20830;SDS011;10576;53.556;9.868;2024-03-23T01:54:15;327.38;;;79.25;;
20830;SDS011;10576;53.556;9.868;2024-03-23T01:56:41;329.15;;;81.13;;
20830;SDS011;10576;53.556;9.868;2024-03-23T01:59:07;333.48;;;81.75;;
20830;SDS011;10576;53.556;9.868;2024-03-23T02:01:36;331.48;;;81.95;;
20830;SDS011;10576;53.556;9.868;2024-03-23T02:04:02;332.67;;;82.97;;
20830;SDS011;10576;53.556;9.868;2024-03-23T02:06:28;331.73;;;83.10;;
20830;SDS011;10576;53.556;9.868;2024-03-23T02:08:55;328.98;;;80.13;;
20830;SDS011;10576;53.556;9.868;2024-03-23T02:11:20;330.77;;;81.80;;
20830;SDS011;10576;53.556;9.868;2024-03-23T02:13:46;329.30;;;81.30;;
20830;SDS011;10576;53.556;9.868;2024-03-23T02:16:12;330.97;;;80.43;;
20830;SDS011;10576;53.556;9.868;2024-03-23T02:18:38;329.30;;;80.88;;
20830;SDS011;10576;53.556;9.868;2024-03-23T02:21:04;330.95;;;80.45;;
20830;SDS011;10576;53.556;9.868;2024-03-23T02:23:30;332.23;;;81.72;;
20830;SDS011;10576;53.556;9.868;2024-03-23T02:25:56;329.37;;;80.13;;
20830;SDS011;10576;53.556;9.868;2024-03-23T02:28:22;329.48;;;78.95;;
20830;SDS011;10576;53.556;9.868;2024-03-23T02:30:48;329.25;;;80.00;;
20830;SDS011;10576;53.556;9.868;2024-03-23T02:33:14;332.50;;;81.70;;
20830;SDS011;10576;53.556;9.868;2024-03-23T02:35:40;333.00;;;81.50;;
20830;SDS011;10576;53.556;9.868;2024-03-23T02:38:05;330.50;;;80.53;;
20830;SDS011;10576;53.556;9.868;2024-03-23T02:40:31;330.75;;;80.35;;
20830;SDS011;10576;53.556;9.868;2024-03-23T02:42:57;328.85;;;79.70;;
20830;SDS011;10576;53.556;9.868;2024-03-23T02:45:23;333.98;;;84.22;;
20830;SDS011;10576;53.556;9.868;2024-03-23T02:47:49;333.73;;;83.23;;
20830;SDS011;10576;53.556;9.868;2024-03-23T02:50:18;329.85;;;79.93;;
20830;SDS011;10576;53.556;9.868;2024-03-23T02:52:44;327.92;;;78.78;;
20830;SDS011;10576;53.556;9.868;2024-03-23T02:55:10;330.80;;;80.55;;
20830;SDS011;10576;53.556;9.868;2024-03-23T02:57:36;330.60;;;79.88;;
20830;SDS011;10576;53.556;9.868;2024-03-23T03:00:02;326.98;;;76.93;;
20830;SDS011;10576;53.556;9.868;2024-03-23T03:02:29;329.52;;;78.75;;
20830;SDS011;10576;53.556;9.868;2024-03-23T03:04:55;327.73;;;78.45;;
20830;SDS011;10576;53.556;9.868;2024-03-23T03:07:20;327.42;;;77.55;;
20830;SDS011;10576;53.556;9.868;2024-03-23T03:09:46;331.85;;;80.13;;
20830;SDS011;10576;53.556;9.868;2024-03-23T03:12:12;329.98;;;79.18;;
20830;SDS011;10576;53.556;9.868;2024-03-23T03:14:38;327.93;;;79.80;;
20830;SDS011;10576;53.556;9.868;2024-03-23T03:17:04;330.02;;;79.07;;
20830;SDS011;10576;53.556;9.868;2024-03-23T03:19:30;327.88;;;76.80;;
20830;SDS011;10576;53.556;9.868;2024-03-23T03:21:56;330.00;;;77.78;;
20830;SDS011;10576;53.556;9.868;2024-03-23T03:24:22;328.57;;;78.50;;
20830;SDS011;10576;53.556;9.868;2024-03-23T03:26:48;329.83;;;78.88;;
20830;SDS011;10576;53.556;9.868;2024-03-23T03:29:14;330.10;;;79.55;;
20830;SDS011;10576;53.556;9.868;2024-03-23T03:31:40;330.42;;;78.50;;
20830;SDS011;10576;53.556;9.868;2024-03-23T03:34:06;329.33;;;78.68;;
20830;SDS011;10576;53.556;9.868;2024-03-23T03:36:32;328.08;;;77.88;;
20830;SDS011;10576;53.556;9.868;2024-03-23T03:38:58;328.30;;;78.22;;
20830;SDS011;10576;53.556;9.868;2024-03-23T03:41:24;328.80;;;78.22;;
20830;SDS011;10576;53.556;9.868;2024-03-23T03:43:50;328.48;;;77.53;;
20830;SDS011;10576;53.556;9.868;2024-03-23T03:46:16;329.58;;;80.32;;
20830;SDS011;10576;53.556;9.868;2024-03-23T03:48:42;327.60;;;77.67;;
20830;SDS011;10576;53.556;9.868;2024-03-23T03:51:10;326.52;;;77.40;;
20830;SDS011;10576;53.556;9.868;2024-03-23T03:53:35;331.23;;;80.80;;
20830;SDS011;10576;53.556;9.868;2024-03-23T03:56:01;330.05;;;80.28;;
20830;SDS011;10576;53.556;9.868;2024-03-23T03:58:27;325.38;;;77.93;;
20830;SDS011;10576;53.556;9.868;2024-03-23T04:00:53;328.75;;;78.65;;
20830;SDS011;10576;53.556;9.868;2024-03-23T04:03:19;327.85;;;78.20;;
20830;SDS011;10576;53.556;9.868;2024-03-23T04:05:55;323.67;;;76.18;;
20830;SDS011;10576;53.556;9.868;2024-03-23T04:08:21;327.38;;;77.35;;
20830;SDS011;10576;53.556;9.868;2024-03-23T04:10:47;328.67;;;78.65;;
20830;SDS011;10576;53.556;9.868;2024-03-23T04:13:13;326.83;;;77.30;;
20830;SDS011;10576;53.556;9.868;2024-03-23T04:15:39;329.23;;;77.45;;
20830;SDS011;10576;53.556;9.868;2024-03-23T04:18:05;328.67;;;78.07;;
20830;SDS011;10576;53.556;9.868;2024-03-23T04:20:30;326.58;;;76.75;;
20830;SDS011;10576;53.556;9.868;2024-03-23T04:22:57;329.25;;;79.72;;
20830;SDS011;10576;53.556;9.868;2024-03-23T04:25:23;330.53;;;80.47;;
20830;SDS011;10576;53.556;9.868;2024-03-23T04:27:49;328.52;;;79.97;;
20830;SDS011;10576;53.556;9.868;2024-03-23T04:30:15;329.70;;;79.80;;
20830;SDS011;10576;53.556;9.868;2024-03-23T04:32:41;327.67;;;76.82;;
20830;SDS011;10576;53.556;9.868;2024-03-23T04:35:07;327.52;;;76.10;;
20830;SDS011;10576;53.556;9.868;2024-03-23T04:37:36;330.07;;;78.20;;
20830;SDS011;10576;53.556;9.868;2024-03-23T04:40:02;328.52;;;77.32;;
20830;SDS011;10576;53.556;9.868;2024-03-23T04:42:29;329.55;;;77.88;;
20830;SDS011;10576;53.556;9.868;2024-03-23T04:44:55;326.55;;;76.78;;
20830;SDS011;10576;53.556;9.868;2024-03-23T04:47:20;327.57;;;77.37;;
20830;SDS011;10576;53.556;9.868;2024-03-23T04:49:46;328.75;;;78.32;;
20830;SDS011;10576;53.556;9.868;2024-03-23T04:52:12;324.90;;;75.03;;
20830;SDS011;10576;53.556;9.868;2024-03-23T04:54:38;328.20;;;76.87;;
20830;SDS011;10576;53.556;9.868;2024-03-23T04:57:07;329.83;;;79.03;;
20830;SDS011;10576;53.556;9.868;2024-03-23T04:59:33;328.17;;;78.43;;
20830;SDS011;10576;53.556;9.868;2024-03-23T05:01:59;328.25;;;77.10;;
20830;SDS011;10576;53.556;9.868;2024-03-23T05:04:25;329.23;;;78.87;;
20830;SDS011;10576;53.556;9.868;2024-03-23T05:06:50;328.10;;;77.03;;
20830;SDS011;10576;53.556;9.868;2024-03-23T05:09:17;330.25;;;78.63;;
20830;SDS011;10576;53.556;9.868;2024-03-23T05:11:43;328.83;;;78.65;;
20830;SDS011;10576;53.556;9.868;2024-03-23T05:14:09;328.33;;;77.43;;
20830;SDS011;10576;53.556;9.868;2024-03-23T05:16:35;326.05;;;76.25;;
20830;SDS011;10576;53.556;9.868;2024-03-23T05:19:01;327.83;;;76.40;;
20830;SDS011;10576;53.556;9.868;2024-03-23T05:21:27;330.98;;;80.53;;
20830;SDS011;10576;53.556;9.868;2024-03-23T05:23:56;328.77;;;77.72;;
20830;SDS011;10576;53.556;9.868;2024-03-23T05:26:22;329.00;;;78.33;;
20830;SDS011;10576;53.556;9.868;2024-03-23T05:28:48;328.85;;;77.30;;
20830;SDS011;10576;53.556;9.868;2024-03-23T05:31:26;328.83;;;77.95;;
20830;SDS011;10576;53.556;9.868;2024-03-23T05:33:53;329.00;;;77.75;;
20830;SDS011;10576;53.556;9.868;2024-03-23T05:36:19;331.88;;;78.47;;
20830;SDS011;10576;53.556;9.868;2024-03-23T05:38:46;329.48;;;77.85;;
20830;SDS011;10576;53.556;9.868;2024-03-23T05:41:12;329.42;;;78.93;;
20830;SDS011;10576;53.556;9.868;2024-03-23T05:43:38;329.50;;;77.10;;
20830;SDS011;10576;53.556;9.868;2024-03-23T05:46:04;328.83;;;76.70;;
20830;SDS011;10576;53.556;9.868;2024-03-23T05:48:30;328.30;;;77.27;;
20830;SDS011;10576;53.556;9.868;2024-03-23T05:50:56;328.88;;;76.68;;
20830;SDS011;10576;53.556;9.868;2024-03-23T05:53:23;330.15;;;78.35;;
20830;SDS011;10576;53.556;9.868;2024-03-23T05:55:49;324.48;;;74.88;;
20830;SDS011;10576;53.556;9.868;2024-03-23T05:58:16;330.30;;;79.22;;
20830;SDS011;10576;53.556;9.868;2024-03-23T06:00:42;328.80;;;77.28;;
20830;SDS011;10576;53.556;9.868;2024-03-23T06:03:08;327.45;;;76.25;;
20830;SDS011;10576;53.556;9.868;2024-03-23T06:05:37;327.38;;;76.90;;
20830;SDS011;10576;53.556;9.868;2024-03-23T06:08:03;330.92;;;79.03;;
20830;SDS011;10576;53.556;9.868;2024-03-23T06:10:29;329.88;;;78.43;;
20830;SDS011;10576;53.556;9.868;2024-03-23T06:12:56;327.30;;;75.75;;
20830;SDS011;10576;53.556;9.868;2024-03-23T06:15:23;328.65;;;76.57;;
20830;SDS011;10576;53.556;9.868;2024-03-23T06:17:49;330.23;;;78.55;;
20830;SDS011;10576;53.556;9.868;2024-03-23T06:20:15;326.45;;;76.20;;
20830;SDS011;10576;53.556;9.868;2024-03-23T06:22:41;327.48;;;76.50;;
20830;SDS011;10576;53.556;9.868;2024-03-23T06:25:07;328.38;;;77.95;;
20830;SDS011;10576;53.556;9.868;2024-03-23T06:27:33;328.67;;;78.28;;
20830;SDS011;10576;53.556;9.868;2024-03-23T06:29:59;326.50;;;76.43;;
20830;SDS011;10576;53.556;9.868;2024-03-23T06:32:25;332.48;;;81.90;;
20830;SDS011;10576;53.556;9.868;2024-03-23T06:34:50;331.98;;;81.00;;
20830;SDS011;10576;53.556;9.868;2024-03-23T06:37:16;331.08;;;80.03;;
20830;SDS011;10576;53.556;9.868;2024-03-23T06:39:42;330.50;;;79.75;;
20830;SDS011;10576;53.556;9.868;2024-03-23T06:42:10;330.15;;;79.32;;
20830;SDS011;10576;53.556;9.868;2024-03-23T06:44:36;326.05;;;77.25;;
20830;SDS011;10576;53.556;9.868;2024-03-23T06:47:02;328.83;;;78.85;;
20830;SDS011;10576;53.556;9.868;2024-03-23T06:49:28;332.08;;;81.78;;
20830;SDS011;10576;53.556;9.868;2024-03-23T06:51:54;327.20;;;77.87;;
20830;SDS011;10576;53.556;9.868;2024-03-23T06:54:19;330.63;;;80.00;;
20830;SDS011;10576;53.556;9.868;2024-03-23T06:56:45;328.40;;;78.22;;
20830;SDS011;10576;53.556;9.868;2024-03-23T06:59:12;329.88;;;79.95;;
20830;SDS011;10576;53.556;9.868;2024-03-23T07:01:38;328.40;;;78.60;;
20830;SDS011;10576;53.556;9.868;2024-03-23T07:04:04;333.08;;;81.78;;
20830;SDS011;10576;53.556;9.868;2024-03-23T07:06:30;331.38;;;79.65;;
20830;SDS011;10576;53.556;9.868;2024-03-23T07:08:56;325.25;;;75.45;;
20830;SDS011;10576;53.556;9.868;2024-03-23T07:11:22;328.90;;;78.63;;
20830;SDS011;10576;53.556;9.868;2024-03-23T07:13:52;330.05;;;79.13;;
20830;SDS011;10576;53.556;9.868;2024-03-23T07:16:21;326.30;;;77.90;;
20830;SDS011;10576;53.556;9.868;2024-03-23T07:18:47;330.48;;;79.63;;
20830;SDS011;10576;53.556;9.868;2024-03-23T07:21:14;329.33;;;78.38;;
20830;SDS011;10576;53.556;9.868;2024-03-23T07:23:43;328.88;;;79.28;;
20830;SDS011;10576;53.556;9.868;2024-03-23T07:26:10;331.40;;;81.47;;
20830;SDS011;10576;53.556;9.868;2024-03-23T07:28:36;329.73;;;80.97;;
20830;SDS011;10576;53.556;9.868;2024-03-23T07:31:06;327.27;;;78.22;;
20830;SDS011;10576;53.556;9.868;2024-03-23T07:33:34;335.50;;;84.57;;
20830;SDS011;10576;53.556;9.868;2024-03-23T07:36:00;328.98;;;80.55;;
20830;SDS011;10576;53.556;9.868;2024-03-23T07:38:27;328.35;;;80.53;;
20830;SDS011;10576;53.556;9.868;2024-03-23T07:41:03;331.98;;;82.22;;
20830;SDS011;10576;53.556;9.868;2024-03-23T07:43:29;332.60;;;83.10;;
20830;SDS011;10576;53.556;9.868;2024-03-23T07:45:54;327.93;;;80.63;;
20830;SDS011;10576;53.556;9.868;2024-03-23T07:48:21;331.33;;;81.60;;
20830;SDS011;10576;53.556;9.868;2024-03-23T07:50:59;330.17;;;80.18;;
20830;SDS011;10576;53.556;9.868;2024-03-23T07:53:28;333.08;;;84.30;;
20830;SDS011;10576;53.556;9.868;2024-03-23T07:55:55;336.83;;;87.77;;
20830;SDS011;10576;53.556;9.868;2024-03-23T07:58:22;336.92;;;88.38;;
20830;SDS011;10576;53.556;9.868;2024-03-23T08:00:47;332.65;;;85.80;;
20830;SDS011;10576;53.556;9.868;2024-03-23T08:03:13;335.00;;;88.32;;
20830;SDS011;10576;53.556;9.868;2024-03-23T08:05:39;337.13;;;90.22;;
20830;SDS011;10576;53.556;9.868;2024-03-23T08:08:05;338.95;;;94.28;;
20830;SDS011;10576;53.556;9.868;2024-03-23T08:10:31;336.00;;;91.40;;
20830;SDS011;10576;53.556;9.868;2024-03-23T08:12:57;333.57;;;90.57;;
20830;SDS011;10576;53.556;9.868;2024-03-23T08:15:23;338.48;;;95.88;;
20830;SDS011;10576;53.556;9.868;2024-03-23T08:17:49;340.60;;;96.63;;
20830;SDS011;10576;53.556;9.868;2024-03-23T08:20:15;338.20;;;96.72;;
20830;SDS011;10576;53.556;9.868;2024-03-23T08:22:41;337.33;;;94.82;;
20830;SDS011;10576;53.556;9.868;2024-03-23T08:25:07;338.80;;;97.95;;
20830;SDS011;10576;53.556;9.868;2024-03-23T08:27:32;336.13;;;94.60;;
20830;SDS011;10576;53.556;9.868;2024-03-23T08:29:58;335.40;;;94.43;;
20830;SDS011;10576;53.556;9.868;2024-03-23T08:32:24;337.90;;;95.77;;
20830;SDS011;10576;53.556;9.868;2024-03-23T08:34:50;338.13;;;97.72;;
20830;SDS011;10576;53.556;9.868;2024-03-23T08:37:16;336.15;;;94.75;;
20830;SDS011;10576;53.556;9.868;2024-03-23T08:39:44;338.07;;;96.57;;
20830;SDS011;10576;53.556;9.868;2024-03-23T08:42:10;337.48;;;96.78;;
20830;SDS011;10576;53.556;9.868;2024-03-23T08:44:35;339.95;;;97.78;;
20830;SDS011;10576;53.556;9.868;2024-03-23T08:47:01;340.05;;;98.57;;
20830;SDS011;10576;53.556;9.868;2024-03-23T08:49:27;338.98;;;98.50;;
20830;SDS011;10576;53.556;9.868;2024-03-23T08:51:53;343.95;;;102.47;;
20830;SDS011;10576;53.556;9.868;2024-03-23T08:54:19;339.95;;;98.70;;
20830;SDS011;10576;53.556;9.868;2024-03-23T08:56:47;341.60;;;100.57;;
20830;SDS011;10576;53.556;9.868;2024-03-23T08:59:13;339.55;;;98.85;;
20830;SDS011;10576;53.556;9.868;2024-03-23T09:01:38;337.13;;;97.32;;
20830;SDS011;10576;53.556;9.868;2024-03-23T09:04:04;341.40;;;99.33;;
20830;SDS011;10576;53.556;9.868;2024-03-23T09:06:30;340.97;;;100.17;;
20830;SDS011;10576;53.556;9.868;2024-03-23T09:08:56;342.42;;;105.03;;
20830;SDS011;10576;53.556;9.868;2024-03-23T09:11:22;340.27;;;102.47;;
20830;SDS011;10576;53.556;9.868;2024-03-23T09:13:47;341.83;;;104.53;;
20830;SDS011;10576;53.556;9.868;2024-03-23T09:16:14;340.67;;;100.83;;
20830;SDS011;10576;53.556;9.868;2024-03-23T09:18:40;339.08;;;101.07;;
20830;SDS011;10576;53.556;9.868;2024-03-23T09:21:15;337.92;;;97.50;;
20830;SDS011;10576;53.556;9.868;2024-03-23T09:23:43;341.25;;;99.88;;
20830;SDS011;10576;53.556;9.868;2024-03-23T09:26:10;334.88;;;95.95;;
20830;SDS011;10576;53.556;9.868;2024-03-23T09:28:36;338.60;;;96.55;;
20830;SDS011;10576;53.556;9.868;2024-03-23T09:31:03;339.10;;;98.35;;
20830;SDS011;10576;53.556;9.868;2024-03-23T09:33:29;340.20;;;98.07;;
20830;SDS011;10576;53.556;9.868;2024-03-23T09:35:54;339.67;;;99.53;;
20830;SDS011;10576;53.556;9.868;2024-03-23T09:38:21;338.10;;;97.68;;
20830;SDS011;10576;53.556;9.868;2024-03-23T09:40:48;337.30;;;95.88;;
20830;SDS011;10576;53.556;9.868;2024-03-23T09:43:18;334.65;;;95.53;;
20830;SDS011;10576;53.556;9.868;2024-03-23T09:45:44;338.02;;;98.15;;
20830;SDS011;10576;53.556;9.868;2024-03-23T09:48:11;337.70;;;97.32;;
20830;SDS011;10576;53.556;9.868;2024-03-23T09:50:40;337.23;;;96.88;;
20830;SDS011;10576;53.556;9.868;2024-03-23T09:53:07;337.27;;;95.82;;
20830;SDS011;10576;53.556;9.868;2024-03-23T09:55:33;335.58;;;96.30;;
20830;SDS011;10576;53.556;9.868;2024-03-23T09:58:00;337.48;;;97.28;;
20830;SDS011;10576;53.556;9.868;2024-03-23T10:00:26;339.40;;;98.97;;
20830;SDS011;10576;53.556;9.868;2024-03-23T10:02:54;338.17;;;97.97;;
20830;SDS011;10576;53.556;9.868;2024-03-23T10:05:21;341.42;;;100.03;;
20830;SDS011;10576;53.556;9.868;2024-03-23T10:07:48;340.35;;;99.10;;
20830;SDS011;10576;53.556;9.868;2024-03-23T10:10:15;343.30;;;103.05;;
20830;SDS011;10576;53.556;9.868;2024-03-23T10:12:45;336.60;;;98.47;;
20830;SDS011;10576;53.556;9.868;2024-03-23T10:15:19;344.58;;;106.25;;
20830;SDS011;10576;53.556;9.868;2024-03-23T10:17:47;349.25;;;111.13;;
20830;SDS011;10576;53.556;9.868;2024-03-23T10:20:12;343.90;;;106.55;;
20830;SDS011;10576;53.556;9.868;2024-03-23T10:22:39;344.15;;;106.15;;
20830;SDS011;10576;53.556;9.868;2024-03-23T10:25:08;340.10;;;101.13;;
20830;SDS011;10576;53.556;9.868;2024-03-23T10:27:34;342.20;;;104.25;;
20830;SDS011;10576;53.556;9.868;2024-03-23T10:30:10;339.65;;;100.13;;
20830;SDS011;10576;53.556;9.868;2024-03-23T10:32:37;341.00;;;101.90;;
20830;SDS011;10576;53.556;9.868;2024-03-23T10:37:47;337.92;;;99.82;;
20830;SDS011;10576;53.556;9.868;2024-03-23T10:40:14;342.02;;;102.30;;
20830;SDS011;10576;53.556;9.868;2024-03-23T10:42:40;339.92;;;100.85;;
20830;SDS011;10576;53.556;9.868;2024-03-23T10:45:06;344.38;;;101.75;;
20830;SDS011;10576;53.556;9.868;2024-03-23T10:47:34;343.65;;;101.38;;
20830;SDS011;10576;53.556;9.868;2024-03-23T10:50:01;339.08;;;97.07;;
20830;SDS011;10576;53.556;9.868;2024-03-23T10:52:27;336.13;;;94.20;;
20830;SDS011;10576;53.556;9.868;2024-03-23T10:54:53;337.03;;;94.27;;
20830;SDS011;10576;53.556;9.868;2024-03-23T10:57:27;337.67;;;92.83;;
20830;SDS011;10576;53.556;9.868;2024-03-23T10:59:59;335.05;;;91.72;;
20830;SDS011;10576;53.556;9.868;2024-03-23T11:02:27;339.67;;;96.73;;
20830;SDS011;10576;53.556;9.868;2024-03-23T11:04:54;339.33;;;96.53;;
20830;SDS011;10576;53.556;9.868;2024-03-23T11:09:48;339.67;;;98.97;;
20830;SDS011;10576;53.556;9.868;2024-03-23T11:14:46;340.88;;;101.82;;
20830;SDS011;10576;53.556;9.868;2024-03-23T11:17:32;343.02;;;103.47;;
20830;SDS011;10576;53.556;9.868;2024-03-23T11:19:58;338.88;;;99.95;;
20830;SDS011;10576;53.556;9.868;2024-03-23T11:25:25;343.38;;;105.53;;
20830;SDS011;10576;53.556;9.868;2024-03-23T11:27:57;340.95;;;102.75;;
20830;SDS011;10576;53.556;9.868;2024-03-23T11:30:24;340.70;;;102.43;;
20830;SDS011;10576;53.556;9.868;2024-03-23T11:32:52;339.85;;;99.97;;
20830;SDS011;10576;53.556;9.868;2024-03-23T11:35:28;337.55;;;98.22;;
20830;SDS011;10576;53.556;9.868;2024-03-23T11:38:08;338.77;;;99.67;;
20830;SDS011;10576;53.556;9.868;2024-03-23T11:40:36;338.77;;;100.85;;
20830;SDS011;10576;53.556;9.868;2024-03-23T11:43:04;341.33;;;101.80;;
20830;SDS011;10576;53.556;9.868;2024-03-23T11:45:34;342.63;;;102.97;;
20830;SDS011;10576;53.556;9.868;2024-03-23T11:50:40;341.23;;;104.65;;
20830;SDS011;10576;53.556;9.868;2024-03-23T11:53:12;340.15;;;104.32;;
20830;SDS011;10576;53.556;9.868;2024-03-23T11:55:42;340.48;;;103.38;;
20830;SDS011;10576;53.556;9.868;2024-03-23T11:58:09;341.98;;;103.00;;
20830;SDS011;10576;53.556;9.868;2024-03-23T12:00:36;344.70;;;103.53;;
20830;SDS011;10576;53.556;9.868;2024-03-23T12:03:02;339.92;;;99.78;;
20830;SDS011;10576;53.556;9.868;2024-03-23T12:05:29;335.88;;;94.05;;
20830;SDS011;10576;53.556;9.868;2024-03-23T12:07:55;336.60;;;94.40;;
20830;SDS011;10576;53.556;9.868;2024-03-23T12:10:21;340.58;;;96.88;;
20830;SDS011;10576;53.556;9.868;2024-03-23T12:13:00;330.80;;;85.75;;
20830;SDS011;10576;53.556;9.868;2024-03-23T12:15:26;336.40;;;90.40;;
20830;SDS011;10576;53.556;9.868;2024-03-23T12:18:05;335.80;;;92.18;;
20830;SDS011;10576;53.556;9.868;2024-03-23T12:20:35;336.02;;;91.72;;
20830;SDS011;10576;53.556;9.868;2024-03-23T12:23:20;334.27;;;89.57;;
20830;SDS011;10576;53.556;9.868;2024-03-23T12:25:48;331.65;;;89.43;;
20830;SDS011;10576;53.556;9.868;2024-03-23T12:28:14;336.85;;;93.03;;
20830;SDS011;10576;53.556;9.868;2024-03-23T12:30:40;334.13;;;91.38;;
20830;SDS011;10576;53.556;9.868;2024-03-23T12:33:06;334.33;;;92.40;;
20830;SDS011;10576;53.556;9.868;2024-03-23T12:35:32;334.60;;;89.43;;
20830;SDS011;10576;53.556;9.868;2024-03-23T12:37:57;332.88;;;87.88;;
20830;SDS011;10576;53.556;9.868;2024-03-23T12:40:23;335.33;;;87.32;;
20830;SDS011;10576;53.556;9.868;2024-03-23T12:42:49;330.50;;;83.40;;
20830;SDS011;10576;53.556;9.868;2024-03-23T12:45:15;330.95;;;82.32;;
20830;SDS011;10576;53.556;9.868;2024-03-23T12:47:41;333.77;;;84.97;;
20830;SDS011;10576;53.556;9.868;2024-03-23T12:50:07;330.73;;;80.32;;
20830;SDS011;10576;53.556;9.868;2024-03-23T12:52:34;331.02;;;80.75;;
20830;SDS011;10576;53.556;9.868;2024-03-23T12:55:01;330.20;;;79.25;;
20830;SDS011;10576;53.556;9.868;2024-03-23T12:57:26;329.77;;;79.77;;
20830;SDS011;10576;53.556;9.868;2024-03-23T12:59:52;329.20;;;79.72;;
20830;SDS011;10576;53.556;9.868;2024-03-23T13:02:21;333.65;;;83.55;;
20830;SDS011;10576;53.556;9.868;2024-03-23T13:04:54;329.00;;;79.47;;
20830;SDS011;10576;53.556;9.868;2024-03-23T13:07:20;329.40;;;79.38;;
20830;SDS011;10576;53.556;9.868;2024-03-23T13:09:47;330.25;;;81.03;;
20830;SDS011;10576;53.556;9.868;2024-03-23T13:12:15;330.33;;;81.67;;
20830;SDS011;10576;53.556;9.868;2024-03-23T13:14:40;330.73;;;81.43;;
20830;SDS011;10576;53.556;9.868;2024-03-23T13:17:07;331.67;;;82.73;;
20830;SDS011;10576;53.556;9.868;2024-03-23T13:19:33;327.98;;;79.00;;
20830;SDS011;10576;53.556;9.868;2024-03-23T13:21:59;331.33;;;82.43;;
20830;SDS011;10576;53.556;9.868;2024-03-23T13:24:28;330.95;;;81.43;;
20830;SDS011;10576;53.556;9.868;2024-03-23T13:26:55;327.38;;;78.75;;
20830;SDS011;10576;53.556;9.868;2024-03-23T13:29:21;333.25;;;84.03;;
20830;SDS011;10576;53.556;9.868;2024-03-23T13:31:48;331.85;;;82.28;;
20830;SDS011;10576;53.556;9.868;2024-03-23T13:34:14;329.55;;;81.10;;
20830;SDS011;10576;53.556;9.868;2024-03-23T13:36:43;331.42;;;82.15;;
20830;SDS011;10576;53.556;9.868;2024-03-23T13:39:10;329.43;;;80.90;;
20830;SDS011;10576;53.556;9.868;2024-03-23T13:41:37;327.27;;;78.85;;
20830;SDS011;10576;53.556;9.868;2024-03-23T13:44:04;329.52;;;80.55;;
20830;SDS011;10576;53.556;9.868;2024-03-23T13:46:30;330.35;;;81.95;;
20830;SDS011;10576;53.556;9.868;2024-03-23T13:48:56;330.67;;;81.37;;
20830;SDS011;10576;53.556;9.868;2024-03-23T13:51:25;330.02;;;82.07;;
20830;SDS011;10576;53.556;9.868;2024-03-23T13:53:54;332.65;;;83.97;;
20830;SDS011;10576;53.556;9.868;2024-03-23T13:56:27;327.60;;;79.30;;
20830;SDS011;10576;53.556;9.868;2024-03-23T13:58:54;329.42;;;81.30;;
20830;SDS011;10576;53.556;9.868;2024-03-23T14:01:20;329.03;;;81.50;;
20830;SDS011;10576;53.556;9.868;2024-03-23T14:03:46;334.48;;;85.30;;
20830;SDS011;10576;53.556;9.868;2024-03-23T14:06:12;330.77;;;82.57;;
20830;SDS011;10576;53.556;9.868;2024-03-23T14:08:38;333.00;;;84.43;;
20830;SDS011;10576;53.556;9.868;2024-03-23T14:11:08;330.88;;;82.90;;
20830;SDS011;10576;53.556;9.868;2024-03-23T14:13:34;333.98;;;86.78;;
20830;SDS011;10576;53.556;9.868;2024-03-23T14:16:00;330.38;;;82.22;;
20830;SDS011;10576;53.556;9.868;2024-03-23T14:18:26;334.75;;;85.40;;
20830;SDS011;10576;53.556;9.868;2024-03-23T14:20:55;333.63;;;85.45;;
20830;SDS011;10576;53.556;9.868;2024-03-23T14:23:23;328.60;;;81.53;;
20830;SDS011;10576;53.556;9.868;2024-03-23T14:25:49;329.10;;;81.32;;
20830;SDS011;10576;53.556;9.868;2024-03-23T14:28:14;331.90;;;85.25;;
20830;SDS011;10576;53.556;9.868;2024-03-23T14:30:41;327.77;;;80.33;;
20830;SDS011;10576;53.556;9.868;2024-03-23T14:33:07;333.27;;;85.43;;
20830;SDS011;10576;53.556;9.868;2024-03-23T14:35:33;330.65;;;82.65;;
20830;SDS011;10576;53.556;9.868;2024-03-23T14:37:58;333.70;;;85.18;;
20830;SDS011;10576;53.556;9.868;2024-03-23T14:40:24;332.92;;;85.35;;
20830;SDS011;10576;53.556;9.868;2024-03-23T14:42:56;330.27;;;83.10;;
20830;SDS011;10576;53.556;9.868;2024-03-23T14:45:22;329.73;;;82.78;;
20830;SDS011;10576;53.556;9.868;2024-03-23T14:47:49;332.60;;;83.82;;
20830;SDS011;10576;53.556;9.868;2024-03-23T14:50:19;330.50;;;82.70;;
20830;SDS011;10576;53.556;9.868;2024-03-23T14:52:46;332.45;;;82.50;;
20830;SDS011;10576;53.556;9.868;2024-03-23T14:55:12;331.95;;;82.10;;
20830;SDS011;10576;53.556;9.868;2024-03-23T14:57:38;329.05;;;79.18;;
20830;SDS011;10576;53.556;9.868;2024-03-23T15:00:08;332.95;;;81.35;;
20830;SDS011;10576;53.556;9.868;2024-03-23T15:02:38;330.40;;;80.55;;
20830;SDS011;10576;53.556;9.868;2024-03-23T15:05:04;331.42;;;81.20;;
20830;SDS011;10576;53.556;9.868;2024-03-23T15:07:34;336.08;;;84.03;;
20830;SDS011;10576;53.556;9.868;2024-03-23T15:09:59;332.85;;;80.60;;
20830;SDS011;10576;53.556;9.868;2024-03-23T15:12:25;331.03;;;78.90;;
20830;SDS011;10576;53.556;9.868;2024-03-23T15:14:51;331.00;;;78.28;;